This is the latest recevied weather packets stored in our database for station/object IW5EIJ-10. If no packets are shown the sender has not sent any weather packets the latest 10 day(s).
| Time | Temp. | Humidity | Pressure | Rain* | Wind** | Luminosity | Snow |
|---|---|---|---|---|---|---|---|
| 1777615608 | 13.33° C | 38% | 1021.8 hPa | - | - | - | - |
| 1777614405 | 12.78° C | 39% | 1021.8 hPa | - | - | - | - |
| 1777613207 | 12.78° C | 39% | 1021.7 hPa | - | - | - | - |
| 1777612005 | 12.22° C | 38% | 1021.6 hPa | - | - | - | - |
| 1777610805 | 12.78° C | 38% | 1021.6 hPa | - | - | - | - |
| 1777609607 | 12.78° C | 37% | 1021.4 hPa | - | - | - | - |
| 1777608405 | 11.67° C | 38% | 1021.3 hPa | - | - | - | - |
| 1777607205 | 11.67° C | 39% | 1021.2 hPa | - | - | - | - |
| 1777606007 | 12.78° C | 34% | 1021.1 hPa | - | - | - | - |
| 1777604806 | 12.78° C | 34% | 1021 hPa | - | - | - | - |
| 1777603606 | 12.78° C | 33% | 1021 hPa | - | - | - | - |
| 1777601204 | 12.22° C | 34% | 1020.7 hPa | - | - | - | - |
| 1777600004 | 12.22° C | 33% | 1020.7 hPa | - | - | - | - |
| 1777598804 | 11.11° C | 33% | 1020.5 hPa | - | - | - | - |
| 1777597604 | 11.11° C | 35% | 1020.4 hPa | - | - | - | - |
| 1777596404 | 11.67° C | 33% | 1020.3 hPa | - | - | - | - |
| 1777595204 | 12.22° C | 33% | 1020.2 hPa | - | - | - | - |
| 1777594004 | 12.78° C | 31% | 1020.1 hPa | - | - | - | - |
| 1777592803 | 12.78° C | 30% | 1020.1 hPa | - | - | - | - |
| 1777590403 | 13.33° C | 30% | 1020.1 hPa | - | - | - | - |
| 1777589203 | 13.33° C | 30% | 1020.1 hPa | - | - | - | - |
| 1777588009 | 12.78° C | 30% | 1020.2 hPa | - | - | - | - |
| 1777586804 | 11.67° C | 32% | 1019.9 hPa | - | - | - | - |
| 1777585609 | 12.78° C | 29% | 1019.7 hPa | - | - | - | - |
| 1777584404 | 12.22° C | 28% | 1019.7 hPa | - | - | - | - |
* Rain since midnight (hover to see other rain measurements)
** Current wind speed in m/s (hover to see current wind gust speed)